createdAt,value
2023-01-11T00:01:59.692Z,94848.41
2023-01-11T00:04:30.676Z,94838.22
2023-01-11T00:06:58.204Z,94840.22
2023-01-11T00:09:25.034Z,94834.53
2023-01-11T00:11:51.739Z,94827.81
2023-01-11T00:14:18.509Z,94827.41
2023-01-11T00:16:45.298Z,94835.31
2023-01-11T00:19:12.092Z,94831.78
2023-01-11T00:21:38.871Z,94831.91
2023-01-11T00:24:06.210Z,94827.06
2023-01-11T00:26:32.948Z,94828.13
2023-01-11T00:28:59.733Z,94832.53
2023-01-11T00:31:26.551Z,94842.13
2023-01-11T00:33:53.292Z,94835.38
2023-01-11T00:36:20.064Z,94843.75
2023-01-11T00:38:51.392Z,94835.72
2023-01-11T00:41:37.299Z,94837.28
2023-01-11T00:44:24.129Z,94836.31
2023-01-11T00:47:09.960Z,94836.53
2023-01-11T00:49:36.937Z,94830.88
2023-01-11T00:52:08.959Z,94841.03
2023-01-11T00:54:37.996Z,94844.34
2023-01-11T00:57:07.454Z,94840.31
2023-01-11T00:59:39.641Z,94836.91
2023-01-11T01:02:07.636Z,94833.91
2023-01-11T01:04:34.407Z,94820.47
2023-01-11T01:07:01.269Z,94826.13
2023-01-11T01:09:28.627Z,94833.06
2023-01-11T01:11:55.388Z,94827.47
2023-01-11T01:14:29.952Z,94832.91
2023-01-11T01:17:00.209Z,94823.47
2023-01-11T01:19:27.913Z,94842.13
2023-01-11T01:22:00.026Z,94832.91
2023-01-11T01:24:28.917Z,94834.81
2023-01-11T01:26:57.292Z,94826.56
2023-01-11T01:29:25.384Z,94822.78
2023-01-11T01:31:52.187Z,94812.38
2023-01-11T01:34:18.916Z,94812.94
2023-01-11T01:36:45.666Z,94809.63
2023-01-11T01:39:13.125Z,94805.94
2023-01-11T01:41:40.419Z,94803.59
2023-01-11T01:44:47.670Z,94798.03
2023-01-11T01:47:15.704Z,94797.63
2023-01-11T01:49:43.692Z,94795.22
2023-01-11T01:52:12.059Z,94787.53
2023-01-11T01:54:45.134Z,94794.63
2023-01-11T01:57:19.989Z,94807.31
2023-01-11T01:59:51.762Z,94792.63
2023-01-11T02:02:25.120Z,94789.78
2023-01-11T02:04:56.459Z,94793.06
2023-01-11T02:07:29.947Z,94791.41
2023-01-11T02:10:20.374Z,94786.38
2023-01-11T02:12:53.149Z,94770.56
2023-01-11T02:15:21.512Z,94769.19
2023-01-11T02:17:48.406Z,94775.66
2023-01-11T02:20:55.028Z,94773.69
2023-01-11T02:24:02.184Z,94766.25
2023-01-11T02:26:59.247Z,94764.09
2023-01-11T02:29:34.657Z,94756.66
2023-01-11T02:32:43.727Z,94757.72
2023-01-11T02:35:26.304Z,94748.28
2023-01-11T02:38:14.202Z,94736.06
2023-01-11T02:40:54.828Z,94740.72
2023-01-11T02:43:52.312Z,94725.72
2023-01-11T02:46:27.592Z,94768.16
2023-01-11T02:49:09.611Z,94756.53
2023-01-11T02:51:45.853Z,94751.91
2023-01-11T02:54:14.792Z,94747.44
2023-01-11T02:56:45.056Z,94749.91
2023-01-11T02:59:18.014Z,94740.13
2023-01-11T03:01:46.897Z,94736.91
2023-01-11T03:04:36.323Z,94732.38
2023-01-11T03:07:23.405Z,94724.31
2023-01-11T03:10:18.539Z,94728.38
2023-01-11T03:13:09.881Z,94735.38
2023-01-11T03:16:08.757Z,94729.00
2023-01-11T03:19:02.717Z,94729.25
2023-01-11T03:21:53.617Z,94733.78
2023-01-11T03:24:33.901Z,94712.56
2023-01-11T03:27:09.376Z,94723.53
2023-01-11T03:29:58.879Z,94718.31
2023-01-11T03:32:51.939Z,94717.19
2023-01-11T03:35:26.440Z,94711.72
2023-01-11T03:38:03.013Z,94717.13
2023-01-11T03:40:33.268Z,94720.22
2023-01-11T03:43:15.799Z,94721.25
2023-01-11T03:45:51.557Z,94707.41
2023-01-11T03:48:24.351Z,94698.59
2023-01-11T03:50:54.219Z,94696.16
2023-01-11T03:53:24.194Z,94688.63
2023-01-11T03:55:56.246Z,94671.16
2023-01-11T03:58:25.480Z,94681.34
2023-01-11T04:00:54.281Z,94669.53
2023-01-11T04:03:21.446Z,94672.50
2023-01-11T04:05:53.838Z,94677.84
2023-01-11T04:08:20.613Z,94669.53
2023-01-11T04:10:47.397Z,94663.22
2023-01-11T04:13:14.092Z,94658.69
2023-01-11T04:15:40.860Z,94654.28
2023-01-11T04:18:07.813Z,94652.91
2023-01-11T04:20:40.341Z,94668.13
2023-01-11T04:23:09.883Z,94654.00
2023-01-11T04:25:36.632Z,94660.72
2023-01-11T04:28:04.293Z,94667.59
2023-01-11T04:30:31.026Z,94665.88
2023-01-11T04:32:59.379Z,94657.66
2023-01-11T04:35:26.893Z,94661.03
2023-01-11T04:37:57.682Z,94664.06
2023-01-11T04:40:25.971Z,94673.53
2023-01-11T04:42:52.792Z,94658.41
2023-01-11T04:45:19.685Z,94660.63
2023-01-11T04:47:46.423Z,94676.25
2023-01-11T04:50:13.311Z,94668.75
2023-01-11T04:52:41.891Z,94673.53
2023-01-11T04:55:09.591Z,94668.31
2023-01-11T04:57:36.600Z,94667.38
2023-01-11T05:00:11.141Z,94663.97
2023-01-11T05:02:40.044Z,94662.06
2023-01-11T05:05:08.101Z,94658.22
2023-01-11T05:07:34.866Z,94657.53
2023-01-11T05:10:02.766Z,94664.81
2023-01-11T05:12:29.503Z,94659.91
2023-01-11T05:14:57.247Z,94657.56
2023-01-11T05:17:23.973Z,94648.97
2023-01-11T05:19:50.704Z,94663.25
2023-01-11T05:22:17.435Z,94656.66
2023-01-11T05:24:44.197Z,94654.91
2023-01-11T05:27:10.980Z,94650.94
2023-01-11T05:29:37.723Z,94645.03
2023-01-11T05:32:04.724Z,94647.88
2023-01-11T05:34:31.463Z,94649.53
2023-01-11T05:36:58.243Z,94636.38
2023-01-11T05:39:25.007Z,94636.38
2023-01-11T05:41:51.746Z,94645.69
2023-01-11T05:44:37.058Z,94646.09
2023-01-11T05:47:04.447Z,94652.78
2023-01-11T05:49:31.250Z,94661.53
2023-01-11T05:51:57.973Z,94641.75
2023-01-11T05:54:24.699Z,94638.44
2023-01-11T05:56:51.438Z,94650.25
2023-01-11T05:59:18.159Z,94634.75
2023-01-11T06:01:44.956Z,94625.31
2023-01-11T06:04:11.736Z,94619.28
2023-01-11T06:06:38.587Z,94633.38
2023-01-11T06:09:05.457Z,94635.31
2023-01-11T06:11:32.266Z,94631.13
2023-01-11T06:13:58.993Z,94629.31
2023-01-11T06:16:25.792Z,94621.34
2023-01-11T06:18:53.858Z,94627.94
2023-01-11T06:21:21.470Z,94615.19
2023-01-11T06:23:53.030Z,94616.53
2023-01-11T06:26:22.306Z,94619.59
2023-01-11T06:28:49.707Z,94607.81
2023-01-11T06:31:17.951Z,94607.00
2023-01-11T06:33:46.003Z,94601.09
2023-01-11T06:36:14.651Z,94613.28
2023-01-11T06:38:42.536Z,94607.72
2023-01-11T06:41:11.168Z,94599.88
2023-01-11T06:43:41.653Z,94594.53
2023-01-11T06:46:16.413Z,94598.47
2023-01-11T06:48:44.603Z,94599.88
2023-01-11T06:51:12.403Z,94603.59
2023-01-11T06:53:41.268Z,94595.75
2023-01-11T06:56:11.455Z,94593.44
2023-01-11T06:58:38.467Z,94586.88
2023-01-11T07:01:05.861Z,94591.09
2023-01-11T07:03:32.862Z,94600.56
2023-01-11T07:05:59.690Z,94605.09
2023-01-11T07:08:26.496Z,94607.56
2023-01-11T07:10:53.997Z,94604.03
2023-01-11T07:13:20.743Z,94599.66
2023-01-11T07:15:50.787Z,94599.53
2023-01-11T07:18:19.283Z,94593.34
2023-01-11T07:20:46.741Z,94584.81
2023-01-11T07:23:13.594Z,94590.47
2023-01-11T07:25:41.264Z,94596.25
2023-01-11T07:28:09.278Z,94593.09
2023-01-11T07:30:56.767Z,94593.09
2023-01-11T07:33:25.698Z,94578.50
2023-01-11T07:35:52.700Z,94597.22
2023-01-11T07:38:19.627Z,94589.13
2023-01-11T07:40:46.433Z,94585.78
2023-01-11T07:43:18.538Z,94597.19
2023-01-11T07:45:49.847Z,94604.03
2023-01-11T07:48:21.538Z,94595.00
2023-01-11T07:50:48.942Z,94596.94
2023-01-11T07:53:15.902Z,94594.31
2023-01-11T07:55:42.798Z,94605.16
2023-01-11T07:58:12.747Z,94600.34
2023-01-11T08:00:41.243Z,94605.16
2023-01-11T08:03:08.593Z,94601.88
2023-01-11T08:05:35.631Z,94607.22
2023-01-11T08:08:02.720Z,94594.59
2023-01-11T08:10:29.632Z,94588.16
2023-01-11T08:13:15.056Z,94595.69
2023-01-11T08:15:42.811Z,94604.06
2023-01-11T08:18:11.893Z,94607.66
2023-01-11T08:20:40.114Z,94623.44
2023-01-11T08:23:09.551Z,94621.38
2023-01-11T08:25:37.211Z,94604.63
2023-01-11T08:28:07.305Z,94612.56
2023-01-11T08:30:35.584Z,94616.97
2023-01-11T08:33:02.687Z,94617.50
2023-01-11T08:35:31.461Z,94618.91
2023-01-11T08:37:58.317Z,94624.78
2023-01-11T08:40:25.812Z,94606.78
2023-01-11T08:42:57.082Z,94618.03
2023-01-11T08:45:24.880Z,94617.63
2023-01-11T08:47:52.275Z,94622.69
2023-01-11T08:50:21.307Z,94622.28
2023-01-11T08:52:51.389Z,94612.94
2023-01-11T08:55:21.195Z,94614.97
2023-01-11T08:57:48.033Z,94608.13
2023-01-11T09:00:15.766Z,94611.41
2023-01-11T09:02:42.686Z,94606.47
2023-01-11T09:05:10.055Z,94620.47
2023-01-11T09:07:36.824Z,94619.34
2023-01-11T09:10:04.449Z,94617.13
2023-01-11T09:12:32.903Z,94623.84
2023-01-11T09:15:00.335Z,94626.97
2023-01-11T09:17:27.213Z,94625.19
2023-01-11T09:19:53.954Z,94625.94
2023-01-11T09:22:20.699Z,94622.03
2023-01-11T09:24:47.491Z,94633.63
2023-01-11T09:27:14.349Z,94633.69
2023-01-11T09:29:41.581Z,94627.19
2023-01-11T09:32:08.347Z,94620.00
2023-01-11T09:34:35.247Z,94607.66
2023-01-11T09:37:04.060Z,94608.19
2023-01-11T09:39:30.858Z,94608.22
2023-01-11T09:42:32.535Z,94609.41
2023-01-11T09:45:21.975Z,94603.91
2023-01-11T09:48:04.946Z,94600.53
2023-01-11T09:50:41.284Z,94607.66
2023-01-11T09:53:28.183Z,94603.25
2023-01-11T09:55:58.216Z,94601.88
2023-01-11T09:59:11.415Z,94603.91
2023-01-11T10:02:05.622Z,94607.34
2023-01-11T10:04:59.004Z,94615.00
2023-01-11T10:18:31.357Z,94602.03
2023-01-11T10:21:31.740Z,94605.72
2023-01-11T10:24:08.632Z,94596.28
2023-01-11T10:26:40.221Z,94595.69
2023-01-11T10:29:19.104Z,94572.53
2023-01-11T10:32:13.739Z,94561.03
2023-01-11T10:35:13.744Z,94567.38
2023-01-11T10:38:05.987Z,94552.66
2023-01-11T10:41:04.367Z,94552.97
2023-01-11T10:43:37.171Z,94550.13
2023-01-11T10:46:08.707Z,94552.25
2023-01-11T10:48:43.128Z,94546.38
2023-01-11T10:51:37.242Z,94543.00
2023-01-11T10:54:23.282Z,94538.59
2023-01-11T10:57:08.171Z,94547.00
2023-01-11T11:00:09.386Z,94529.28
2023-01-11T11:03:01.187Z,94537.84
2023-01-11T11:05:28.019Z,94534.25
2023-01-11T11:08:39.969Z,94536.53
2023-01-11T11:11:40.823Z,94522.22
2023-01-11T11:14:19.570Z,94517.28
2023-01-11T11:17:36.826Z,94523.09
2023-01-11T11:20:15.165Z,94519.69
2023-01-11T11:22:42.702Z,94521.03
2023-01-11T11:25:18.917Z,94512.88
2023-01-11T11:27:53.091Z,94505.00
2023-01-11T11:30:33.243Z,94498.59
2023-01-11T11:33:15.309Z,94507.13
2023-01-11T11:35:46.412Z,94510.63
2023-01-11T11:38:23.813Z,94505.38
2023-01-11T11:41:05.616Z,94505.53
2023-01-11T11:43:37.611Z,94508.97
2023-01-11T11:46:20.317Z,94506.69
2023-01-11T11:49:15.383Z,94501.44
2023-01-11T11:51:44.132Z,94505.38
2023-01-11T11:54:56.811Z,94492.09
2023-01-11T11:57:28.767Z,94502.09
2023-01-11T12:00:11.275Z,94483.06
2023-01-11T12:02:45.509Z,94491.41
2023-01-11T12:05:12.426Z,94490.59
2023-01-11T12:07:55.910Z,94486.34
2023-01-11T12:10:26.766Z,94480.91
2023-01-11T12:12:57.741Z,94490.94
2023-01-11T12:15:30.440Z,94486.31
2023-01-11T12:18:23.961Z,94487.94
2023-01-11T12:20:50.876Z,94480.00
2023-01-11T12:23:24.288Z,94488.72
2023-01-11T12:26:29.023Z,94499.34
2023-01-11T12:29:07.164Z,94477.63
2023-01-11T12:32:24.607Z,94478.97
2023-01-11T12:35:03.138Z,94492.34
2023-01-11T12:37:57.572Z,94492.69
2023-01-11T12:40:52.499Z,94478.91
2023-01-11T12:44:34.440Z,94478.22
2023-01-11T12:47:31.361Z,94479.84
2023-01-11T12:50:25.171Z,94474.41
2023-01-11T12:53:19.597Z,94479.88
2023-01-11T12:56:01.935Z,94484.97
2023-01-11T12:58:58.268Z,94470.84
2023-01-11T13:01:34.260Z,94489.34
2023-01-11T13:04:28.388Z,94480.81
2023-01-11T13:07:06.471Z,94480.16
2023-01-11T13:09:48.501Z,94480.69
2023-01-11T13:12:24.991Z,94470.97
2023-01-11T13:14:59.134Z,94482.75
2023-01-11T13:17:50.476Z,94482.47
2023-01-11T13:20:59.982Z,94479.88
2023-01-11T13:23:42.946Z,94479.19
2023-01-11T13:26:18.798Z,94484.88
2023-01-11T13:29:10.339Z,94488.50
2023-01-11T13:31:37.562Z,94490.63
2023-01-11T13:34:20.565Z,94494.72
2023-01-11T13:37:03.644Z,94498.91
2023-01-11T13:39:40.456Z,94491.59
2023-01-11T13:42:35.033Z,94489.31
2023-01-11T13:45:19.175Z,94491.91
2023-01-11T13:47:55.994Z,94501.06
2023-01-11T13:50:31.926Z,94509.91
2023-01-11T13:53:10.191Z,94506.84
2023-01-11T13:55:39.786Z,94499.03
2023-01-11T13:58:17.584Z,94507.53
2023-01-11T14:00:52.548Z,94509.34
2023-01-11T14:03:46.237Z,94513.91
2023-01-11T14:06:37.471Z,94527.69
2023-01-11T14:09:11.961Z,94530.19
2023-01-11T14:12:00.374Z,94522.78
2023-01-11T14:14:45.445Z,94534.28
2023-01-11T14:17:50.074Z,94535.72
2023-01-11T14:20:39.649Z,94540.97
2023-01-11T14:23:16.350Z,94546.44
2023-01-11T14:26:15.343Z,94542.47
2023-01-11T14:29:19.551Z,94543.59
2023-01-11T14:32:26.894Z,94542.75
2023-01-11T14:35:15.261Z,94550.94
2023-01-11T14:38:19.057Z,94545.69
2023-01-11T14:41:04.937Z,94544.69
2023-01-11T14:43:56.935Z,94547.63
2023-01-11T14:46:49.580Z,94560.41
2023-01-11T14:49:42.169Z,94556.09
2023-01-11T14:52:14.728Z,94560.41
2023-01-11T14:54:45.736Z,94548.91
2023-01-11T14:57:35.404Z,94570.66
2023-01-11T15:00:02.730Z,94568.56
2023-01-11T15:02:30.148Z,94572.13
2023-01-11T15:04:56.976Z,94580.19
2023-01-11T15:07:29.788Z,94578.72
2023-01-11T15:09:59.576Z,94585.91
2023-01-11T15:12:35.670Z,94594.19
2023-01-11T15:15:21.833Z,94593.91
2023-01-11T15:18:15.356Z,94589.91
2023-01-11T15:21:04.971Z,94601.72
2023-01-11T15:23:38.032Z,94624.00
2023-01-11T15:26:09.538Z,94622.88
2023-01-11T15:28:49.167Z,94621.72
2023-01-11T15:31:44.136Z,94651.00
2023-01-11T15:34:22.668Z,94643.81
2023-01-11T15:37:01.659Z,94658.81
2023-01-11T15:39:56.303Z,94640.41
2023-01-11T15:42:59.700Z,94652.78
2023-01-11T15:46:38.817Z,94671.22
2023-01-11T15:49:33.356Z,94660.44
2023-01-11T15:52:24.710Z,94673.53
2023-01-11T15:55:51.103Z,94679.59
2023-01-11T15:58:41.776Z,94696.53
2023-01-11T16:01:22.826Z,94696.53
2023-01-11T16:04:02.883Z,94690.81
2023-01-11T16:06:57.571Z,94695.19
2023-01-11T16:09:54.572Z,94706.81
2023-01-11T16:12:51.409Z,94706.31
2023-01-11T16:15:49.399Z,94710.56
2023-01-11T16:18:34.113Z,94713.94
2023-01-11T16:21:14.748Z,94712.97
2023-01-11T16:23:41.932Z,94723.88
2023-01-11T16:26:08.956Z,94725.34
2023-01-11T16:28:35.903Z,94733.63
2023-01-11T16:31:05.522Z,94730.03
2023-01-11T16:33:34.743Z,94740.78
2023-01-11T16:36:21.268Z,94740.78
2023-01-11T16:39:06.672Z,94741.69
2023-01-11T16:42:06.071Z,94745.34
2023-01-11T16:44:46.064Z,94754.47
2023-01-11T16:47:21.204Z,94759.63
2023-01-11T16:50:19.867Z,94762.69
2023-01-11T16:52:52.504Z,94768.34
2023-01-11T16:55:42.556Z,94774.03
2023-01-11T16:58:26.524Z,94782.03
2023-01-11T17:01:14.310Z,94775.44
2023-01-11T17:03:46.768Z,94777.91
2023-01-11T17:06:13.531Z,94768.47
2023-01-11T17:08:50.841Z,94783.88
2023-01-11T17:11:25.168Z,94796.59
2023-01-11T17:14:34.172Z,94795.88
2023-01-11T17:17:08.753Z,94790.63
2023-01-11T17:19:38.367Z,94811.16
2023-01-11T17:22:14.512Z,94820.41
2023-01-11T17:24:51.038Z,94811.09
2023-01-11T17:27:42.799Z,94812.34
2023-01-11T17:30:22.192Z,94828.72
2023-01-11T17:32:51.673Z,94824.16
2023-01-11T17:35:22.745Z,94816.91
2023-01-11T17:37:53.537Z,94825.81
2023-01-11T17:40:32.647Z,94835.44
2023-01-11T17:43:34.024Z,94822.81
2023-01-11T17:46:02.746Z,94825.69
2023-01-11T17:48:30.587Z,94833.66
2023-01-11T17:51:04.839Z,94831.50
2023-01-11T17:53:34.555Z,94829.88
2023-01-11T17:56:03.315Z,94836.19
2023-01-11T17:58:35.502Z,94829.56
2023-01-11T18:01:07.775Z,94845.25
2023-01-11T18:03:57.239Z,94832.19
2023-01-11T18:06:40.173Z,94842.06
2023-01-11T18:09:18.452Z,94831.50
2023-01-11T18:11:45.687Z,94838.94
2023-01-11T18:14:28.044Z,94845.00
2023-01-11T18:17:35.181Z,94853.25
2023-01-11T18:20:29.092Z,94842.78
2023-01-11T18:23:15.381Z,94842.00
2023-01-11T18:25:44.250Z,94849.44
2023-01-11T18:28:27.489Z,94863.75
2023-01-11T18:30:58.408Z,94873.09
2023-01-11T18:33:29.137Z,94865.41
2023-01-11T18:36:00.149Z,94871.19
2023-01-11T18:38:34.701Z,94870.38
2023-01-11T18:41:27.824Z,94866.78
2023-01-11T18:43:54.994Z,94868.44
2023-01-11T18:46:21.934Z,94862.66
2023-01-11T18:48:48.798Z,94858.41
2023-01-11T18:51:19.323Z,94873.78
2023-01-11T18:53:46.150Z,94864.59
2023-01-11T18:56:14.547Z,94870.63
2023-01-11T18:58:41.378Z,94880.69
2023-01-11T19:01:09.435Z,94897.84
2023-01-11T19:03:37.461Z,94883.28
2023-01-11T19:06:06.013Z,94895.53
2023-01-11T19:08:32.811Z,94875.19
2023-01-11T19:10:59.559Z,94884.50
2023-01-11T19:13:26.309Z,94868.56
2023-01-11T19:15:53.070Z,94883.94
2023-01-11T19:18:19.810Z,94881.31
2023-01-11T19:20:46.533Z,94886.41
2023-01-11T19:23:13.441Z,94878.56
2023-01-11T19:25:40.213Z,94891.53
2023-01-11T19:28:06.963Z,94886.66
2023-01-11T19:30:33.780Z,94894.25
2023-01-11T19:33:00.508Z,94895.56
2023-01-11T19:35:27.308Z,94910.16
2023-01-11T19:37:54.156Z,94902.31
2023-01-11T19:40:21.462Z,94896.41
2023-01-11T19:42:48.295Z,94881.91
2023-01-11T19:45:15.258Z,94910.97
2023-01-11T19:47:42.291Z,94915.38
2023-01-11T19:50:09.783Z,94919.63
2023-01-11T19:52:36.564Z,94912.34
2023-01-11T19:55:03.401Z,94926.72
2023-01-11T19:57:30.159Z,94933.22
2023-01-11T19:59:56.883Z,94936.78
2023-01-11T20:02:23.752Z,94926.84
2023-01-11T20:04:50.614Z,94922.34
2023-01-11T20:07:17.475Z,94939.13
2023-01-11T20:09:44.496Z,94940.28
2023-01-11T20:12:13.234Z,94947.78
2023-01-11T20:14:40.802Z,94954.88
2023-01-11T20:17:08.611Z,94964.38
2023-01-11T20:19:35.352Z,94972.47
2023-01-11T20:22:02.283Z,94967.69
2023-01-11T20:24:30.099Z,94952.94
2023-01-11T20:26:59.579Z,94959.56
2023-01-11T20:29:26.412Z,94942.25
2023-01-11T20:31:53.195Z,94944.44
2023-01-11T20:34:20.785Z,94963.41
2023-01-11T20:36:49.018Z,94964.78
2023-01-11T20:39:16.036Z,94967.00
2023-01-11T20:41:49.778Z,94975.50
2023-01-11T20:44:23.934Z,94987.59
2023-01-11T20:46:52.529Z,94969.69
2023-01-11T20:49:21.523Z,94963.06
2023-01-11T20:51:48.524Z,94977.09
2023-01-11T20:54:15.782Z,94959.38
2023-01-11T20:56:42.890Z,94967.25
2023-01-11T21:01:37.567Z,94955.41
2023-01-11T21:04:07.673Z,94970.13
2023-01-11T21:06:37.155Z,94963.69
2023-01-11T21:09:05.591Z,94949.91
2023-01-11T21:11:33.077Z,94965.31
2023-01-11T21:14:01.563Z,94968.75
2023-01-11T21:16:29.554Z,94974.09
2023-01-11T21:19:04.558Z,94973.09
2023-01-11T21:21:34.005Z,94983.78
2023-01-11T21:24:03.655Z,94979.78
2023-01-11T21:26:32.068Z,94978.38
2023-01-11T21:29:01.680Z,94966.38
2023-01-11T21:31:30.951Z,94966.19
2023-01-11T21:33:58.915Z,94984.06
2023-01-11T21:36:27.960Z,94974.03
2023-01-11T21:38:56.927Z,94986.53
2023-01-11T21:41:48.282Z,94991.44
2023-01-11T21:44:16.269Z,94989.84
2023-01-11T21:46:44.175Z,95007.13
2023-01-11T21:49:13.925Z,95019.22
2023-01-11T21:51:42.041Z,95015.84
2023-01-11T21:54:12.708Z,95022.81
2023-01-11T21:56:41.930Z,95030.53
2023-01-11T21:59:08.970Z,95025.97
2023-01-11T22:01:35.968Z,95020.53
2023-01-11T22:04:11.478Z,95025.03
2023-01-11T22:06:40.337Z,95025.28
2023-01-11T22:09:09.688Z,95012.75
2023-01-11T22:11:36.430Z,95018.94
2023-01-11T22:14:06.603Z,95017.03
2023-01-11T22:16:33.955Z,95020.84
2023-01-11T22:19:02.834Z,95029.09
2023-01-11T22:21:29.664Z,95022.25
2023-01-11T22:23:58.407Z,95011.13
2023-01-11T22:26:26.898Z,95027.78
2023-01-11T22:29:14.420Z,95040.94
2023-01-11T22:31:54.902Z,95044.25
2023-01-11T22:34:22.377Z,95038.09
2023-01-11T22:36:49.740Z,95037.03
2023-01-11T22:39:17.180Z,95031.97
2023-01-11T22:41:46.040Z,95027.69
2023-01-11T22:44:13.561Z,95017.53
2023-01-11T22:46:40.354Z,95016.09
2023-01-11T22:49:07.421Z,95023.94
2023-01-11T22:51:35.079Z,95035.66
2023-01-11T22:54:02.616Z,95038.63
2023-01-11T22:56:30.041Z,95047.16
2023-01-11T22:58:57.795Z,95048.19
2023-01-11T23:01:33.624Z,95047.13
2023-01-11T23:04:01.554Z,95045.34
2023-01-11T23:06:32.697Z,95034.00
2023-01-11T23:09:00.160Z,95038.59
2023-01-11T23:11:49.147Z,95045.25
2023-01-11T23:14:19.318Z,95056.84
2023-01-11T23:16:48.258Z,95049.97
2023-01-11T23:19:18.018Z,95059.75
2023-01-11T23:21:46.250Z,95062.25
2023-01-11T23:24:15.076Z,95050.66
2023-01-11T23:26:42.791Z,95056.81
2023-01-11T23:29:09.775Z,95040.97
2023-01-11T23:31:36.753Z,95036.72
2023-01-11T23:34:07.015Z,95025.13
2023-01-11T23:36:40.422Z,95024.88
2023-01-11T23:39:12.107Z,95027.13
2023-01-11T23:41:57.345Z,95033.25
2023-01-11T23:44:24.147Z,95035.47
2023-01-11T23:47:09.939Z,95035.72
2023-01-11T23:49:37.225Z,95038.31
2023-01-11T23:52:04.217Z,95037.41
2023-01-11T23:54:33.444Z,95039.28
2023-01-11T23:57:02.637Z,95036.19
2023-01-11T23:59:30.014Z,95033.72
